Time;durP1;ratioP1;P1;durP2;ratioP2;P2;SDS_P1;SDS_P2;PMS_P1;PMS_P2;Temp;Humidity;BMP_temperature;BMP_pressure;BME280_temperature;BME280_humidity;BME280_pressure;Samples;Min_cycle;Max_cycle;Signal;HPM_P1;HPM_P2
2020/12/17 09:51:02;;;;;;;25.05;6.00;;;10.90;99.90;;;;;;5041042;28;20724;-81
2020/12/17 09:53:29;;;;;;;20.42;6.20;;;11.20;99.90;;;;;;5037739;28;20068;-82
2020/12/17 11:03:03;;;;;;;26.25;5.90;;;10.70;99.90;;;;;;5126232;27;20325;-80
2020/12/17 11:05:28;;;;;;;22.20;6.10;;;10.80;99.90;;;;;;5106976;28;20493;-80
2020/12/17 11:07:54;;;;;;;21.67;5.68;;;11.10;99.90;;;;;;5105563;28;20027;-80
2020/12/17 11:10:20;;;;;;;17.27;5.25;;;11.50;99.90;;;;;;5108363;28;20031;-79
2020/12/17 11:12:46;;;;;;;24.63;5.63;;;11.70;99.90;;;;;;5090047;28;20054;-81
2020/12/17 11:15:11;;;;;;;26.52;6.13;;;12.00;99.90;;;;;;5103412;27;20030;-80
2020/12/17 11:17:37;;;;;;;18.92;5.43;;;12.30;99.90;;;;;;5085073;28;20090;-79
2020/12/17 11:20:03;;;;;;;35.45;6.00;;;12.50;99.90;;;;;;5086679;28;20047;-80
2020/12/17 11:49:48;;;;;;;21.77;5.57;;;11.00;99.90;;;;;;5135853;27;20337;-78
2020/12/17 11:52:15;;;;;;;30.63;7.50;;;11.00;99.90;;;;;;5085818;28;20028;-80
2020/12/17 11:54:41;;;;;;;21.85;5.45;;;11.30;99.90;;;;;;5087025;28;20052;-79
2020/12/17 11:57:07;;;;;;;16.63;5.20;;;11.70;99.90;;;;;;5102272;28;20036;-79
2020/12/17 11:59:33;;;;;;;16.17;4.97;;;12.00;99.90;;;;;;5082616;28;20036;-78
2020/12/17 12:01:58;;;;;;;15.02;4.50;;;12.30;99.90;;;;;;5054328;27;20053;-80
2020/12/17 12:04:24;;;;;;;20.58;6.28;;;12.40;99.90;;;;;;5047563;28;20449;-80
2020/12/17 12:06:50;;;;;;;21.23;5.20;;;12.70;99.90;;;;;;5044478;28;20033;-79
2020/12/17 12:09:18;;;;;;;21.70;5.78;;;12.90;99.90;;;;;;5046821;28;20021;-79
2020/12/17 12:11:53;;;;;;;25.15;4.78;;;13.00;99.90;;;;;;5045613;28;20400;-79
2020/12/17 12:14:18;;;;;;;15.43;4.55;;;13.20;99.90;;;;;;5045243;28;20399;-79
2020/12/17 12:16:44;;;;;;;18.50;4.00;;;13.30;99.90;;;;;;5045429;28;20035;-79
2020/12/17 12:19:10;;;;;;;14.75;4.07;;;13.40;99.90;;;;;;5044501;28;20682;-80
2020/12/17 12:21:36;;;;;;;22.20;4.40;;;13.50;99.90;;;;;;5045517;28;20033;-78
2020/12/17 12:24:01;;;;;;;21.63;5.38;;;13.60;99.90;;;;;;5043215;28;20070;-79
2020/12/17 12:26:27;;;;;;;15.88;3.75;;;13.60;99.90;;;;;;5042993;28;20064;-79
2020/12/17 12:28:53;;;;;;;21.55;3.90;;;13.50;99.90;;;;;;5042932;28;20037;-79
2020/12/17 12:31:18;;;;;;;10.93;3.50;;;13.60;99.90;;;;;;5040622;28;20129;-80
2020/12/17 12:33:44;;;;;;;13.13;3.65;;;13.50;99.90;;;;;;5062278;28;20061;-79
2020/12/17 12:36:12;;;;;;;14.63;3.60;;;13.50;99.90;;;;;;5044183;28;20028;-79
2020/12/17 12:38:38;;;;;;;13.82;3.90;;;13.50;99.90;;;;;;5044640;28;20030;-79
2020/12/17 12:41:04;;;;;;;20.02;3.60;;;13.50;99.90;;;;;;5046316;28;20033;-79
2020/12/17 12:43:29;;;;;;;17.08;4.20;;;13.60;99.90;;;;;;5042475;28;20029;-79
2020/12/17 12:45:55;;;;;;;20.30;4.28;;;13.60;99.90;;;;;;5046427;28;20094;-78
2020/12/17 12:48:21;;;;;;;15.30;4.47;;;13.50;99.90;;;;;;5047112;28;20116;-79
2020/12/17 12:50:51;;;;;;;11.50;3.53;;;13.50;99.90;;;;;;5041843;28;20120;-80
2020/12/17 12:53:17;;;;;;;21.42;5.25;;;13.60;99.90;;;;;;5041767;28;20079;-78
2020/12/17 12:55:50;;;;;;;12.88;3.20;;;13.60;99.90;;;;;;5048215;28;20463;-79
2020/12/17 12:58:16;;;;;;;12.57;3.40;;;13.50;99.90;;;;;;5043443;28;20018;-79
2020/12/17 13:00:42;;;;;;;19.60;3.95;;;13.50;99.90;;;;;;5024857;28;20072;-79
2020/12/17 13:31:03;;;;;;;16.42;3.53;;;11.20;99.90;;;;;;5025574;27;1595773;-79
2020/12/17 13:33:29;;;;;;;19.65;4.65;;;11.30;99.90;;;;;;5042905;28;20539;-78
2020/12/17 13:35:55;;;;;;;8.45;3.20;;;11.50;99.90;;;;;;5038821;28;20029;-78
2020/12/17 13:38:20;;;;;;;22.20;4.05;;;11.90;99.90;;;;;;5044124;28;20051;-79
2020/12/17 13:40:46;;;;;;;14.07;4.72;;;12.30;99.90;;;;;;5049007;28;20030;-80
2020/12/17 13:43:12;;;;;;;19.90;5.28;;;12.50;99.90;;;;;;5045103;28;20041;-79
2020/12/17 13:45:37;;;;;;;15.45;4.18;;;12.70;99.90;;;;;;5041125;28;20036;-78
2020/12/17 13:48:03;;;;;;;14.70;3.75;;;12.90;99.90;;;;;;5048894;28;20537;-79
2020/12/17 13:50:29;;;;;;;13.13;4.28;;;13.00;99.90;;;;;;5041087;28;20052;-80
2020/12/17 13:52:54;;;;;;;16.13;4.10;;;13.10;99.90;;;;;;5053256;28;20087;-81
2020/12/17 13:55:20;;;;;;;18.13;3.92;;;13.20;99.90;;;;;;5043640;28;20029;-80
2020/12/17 13:57:45;;;;;;;15.40;3.95;;;13.30;99.90;;;;;;5040492;28;20037;-79
2020/12/17 14:00:11;;;;;;;18.02;4.45;;;13.40;99.90;;;;;;5044674;28;20048;-78
2020/12/17 14:02:37;;;;;;;13.80;5.30;;;13.40;99.90;;;;;;5037525;28;20046;-81
2020/12/17 14:05:04;;;;;;;11.13;4.25;;;13.30;99.90;;;;;;5036668;28;20034;-79
2020/12/17 14:07:29;;;;;;;20.95;4.70;;;13.30;99.90;;;;;;5045568;28;20036;-79
2020/12/17 14:09:55;;;;;;;17.55;4.22;;;13.40;99.90;;;;;;5041594;28;20075;-79
2020/12/17 14:12:21;;;;;;;20.77;4.00;;;13.40;99.90;;;;;;5039412;28;20042;-77
2020/12/17 14:14:46;;;;;;;15.23;4.65;;;13.50;99.90;;;;;;5041081;28;20019;-77
2020/12/17 14:17:12;;;;;;;22.42;4.20;;;13.50;99.90;;;;;;5051078;28;20034;-77
2020/12/17 14:19:38;;;;;;;14.68;3.08;;;13.40;99.90;;;;;;5036114;28;20043;-81
2020/12/17 14:22:03;;;;;;;18.05;3.65;;;13.50;99.90;;;;;;5079659;28;20028;-78
2020/12/17 14:24:29;;;;;;;11.68;3.53;;;13.40;99.90;;;;;;5066593;28;20051;-79
2020/12/17 14:26:54;;;;;;;17.80;4.22;;;13.40;99.90;;;;;;5082967;28;20063;-78
2020/12/17 14:29:21;;;;;;;21.27;3.80;;;13.50;99.90;;;;;;5068206;28;20041;-79
2020/12/17 14:31:47;;;;;;;10.23;3.60;;;13.50;99.90;;;;;;5068448;28;20037;-78
2020/12/17 14:34:13;;;;;;;14.57;2.78;;;13.50;99.90;;;;;;5062955;28;20101;-77
2020/12/17 14:36:39;;;;;;;15.43;3.03;;;13.50;99.90;;;;;;5063639;28;20029;-78
2020/12/17 14:39:06;;;;;;;12.63;2.70;;;13.50;99.90;;;;;;5058098;28;20048;-78
2020/12/17 14:41:32;;;;;;;11.50;2.65;;;13.50;99.90;;;;;;5060568;28;20013;-78
2020/12/17 14:43:58;;;;;;;13.25;2.97;;;13.50;99.90;;;;;;5061375;28;20035;-78
2020/12/17 14:46:23;;;;;;;14.35;4.10;;;13.50;99.90;;;;;;5061186;28;20040;-77
2020/12/17 14:48:51;;;;;;;10.75;3.00;;;13.40;99.90;;;;;;5027811;28;20030;-78
2020/12/17 14:51:18;;;;;;;12.52;2.60;;;13.40;99.90;;;;;;5046572;28;20488;-79
2020/12/17 14:53:44;;;;;;;12.98;3.20;;;13.40;99.90;;;;;;5049406;28;20078;-79
